Portada
METAR-TAF:

METAR-TAF

Aeroports :

Aeroport de Benguela

Benguela, Angola

latitud: 12-36-30S, longitud: 13-24-10E, altitud: 36 m

METAR: manca

Hora: 20:10 (19:10 UTC)

Pronòstic

L'informe es va fer fa 8 hores i 10 minuts, a les 11:00 UTC
Pronòstic vàlid del 22 a les 12 UTC al 22 a les 24 UTC
Vent 11 kt del Oest
Visibilitat: 9000 m
Escasses núvols a una alçada de 1500 ft
Cel ennuvolat a una alçada de 2500 ft
Temporalment
l' 22 a les 12 UTC al 22 a les 16 UTC
Vent 8 kt del Sud-Oest
Visibilitat 10 km o més
Escasses núvols a una alçada de 2500 ft
Cel ennuvolat a una alçada de 4000 ft
Evolucionant progressivament
l' 22 a les 18 UTC al 22 a les 20 UTC
Vent 6 kt del Sud-Oest

TAF: FNBG 221100Z 2212/2224 28011KT 9000 FEW015 BKN025 TEMPO 2212/2216 22008KT 9999 FEW025 BKN040 BECMG 2218/2220 23006KT

Observacions i pronòstics meteorològics de més de 4000 aeroports (METAR i TAF).

Les estacions disponibles són els punts grocs i vermells al mapa.

Posi el ratolí al punt desitjat per veure el nom de l'estació.

Feu clic per veure les observacions i els pronòstics meteorològics.

Per canviar el mapa: feu clic els botons verds amb una creu de color negre per apropar; al botó verd amb un guió per allunyar la imatge; o en les fletxes verdes per a mapes adjacents.


METAR-TAF: